Flight Track Log - Related Links

Times and Time Zones

All times are in EDT time to prevent confusion due to time zone crossing. See the AWI3780 flight status page for this flight to view local times or setup timezone preferences in your user account.

Time Position Orientation Groundspeed Altitude Reporting Facility
EDT Latitude Longitude Course Direction KTS MPH feet Rate Location/Type
Fri 03:58:40 PM 44.5128 -73.2464 296° West 157 181 4,700  Level Boston Center
Fri 03:59:00 PM 44.1782 -73.2554 196° South  Level FlightAware Approximate
Fri 03:59:40 PM 44.4708 -73.2867 214° Southwest 150 173 7,800  Level Boston Center
Fri 04:00:00 PM 44.0823 -73.2938 196° South  Level FlightAware Approximate
Fri 04:00:40 PM 44.3978 -73.3031 189° South 212 244 10,800  Level Boston Center
Fri 04:01:00 PM 43.9864 -73.3322 196° South  Level FlightAware Approximate
Fri 04:01:40 PM 44.3264 -73.3483 204° Southwest 270 311 13,000  Level Boston Center
Fri 04:02:00 PM 43.8905 -73.3702 195° South  Level FlightAware Approximate
Fri 04:02:40 PM 44.2489 -73.4081 209° Southwest 306 352 15,500  Level Boston Center
Fri 04:03:40 PM 44.1692 -73.4675 208° Southwest 325 374 18,100 2,100 Climbing Boston Center
Fri 04:04:40 PM 44.0894 -73.5328 210° Southwest 330 380 19,700 1,750 Climbing Boston Center
Fri 04:05:40 PM 44.0075 -73.5947 209° Southwest 336 387 21,600 1,700 Climbing Boston Center
Fri 04:06:40 PM 43.9236 -73.6594 209° Southwest 343 395 23,100 1,150 Climbing Boston Center
Fri 04:07:40 PM 43.8311 -73.7322 210° Southwest 365 420 23,900 1,000 Climbing Boston Center
Fri 04:08:40 PM 43.7364 -73.8050 209° Southwest 377 434 25,100 1,050 Climbing Boston Center
Fri 04:09:40 PM 43.6481 -73.8689 208° Southwest 390 449 26,000 450 Climbing Boston Center
Fri 04:10:40 PM 43.5514 -73.9469 210° Southwest 401 461 26,000  Level Boston Center
Fri 04:11:40 PM 43.4525 -74.0189 208° Southwest 407 468 26,000  Level Boston Center
Fri 04:12:40 PM 43.3408 -74.1017 208° Southwest 412 474 26,000  Level Boston Center
Fri 04:13:40 PM 43.2458 -74.1789 211° Southwest 412 474 26,000  Level Boston Center
Fri 04:14:40 PM 43.1508 -74.2472 208° Southwest 400 460 26,000  Level Boston Center
Fri 04:15:40 PM 43.0603 -74.3128 208° Southwest 388 447 26,000  Level Boston Center
Fri 04:16:40 PM 42.9675 -74.3836 209° Southwest 382 440 26,000  Level Boston Center
Fri 04:17:40 PM 42.8767 -74.4489 208° Southwest 382 440 26,000  Level Boston Center
Fri 04:18:40 PM 42.7858 -74.5194 210° Southwest 382 440 26,000  Level Boston Center
Fri 04:19:40 PM 42.6928 -74.5869 208° Southwest 382 440 26,000  Level Boston Center
Fri 04:20:40 PM 42.5975 -74.6569 208° Southwest 382 440 26,000  Level Boston Center
Fri 04:21:40 PM 42.5044 -74.7242 208° Southwest 382 440 26,000  Level Boston Center
Fri 04:22:40 PM 42.4094 -74.7936 208° Southwest 382 440 26,000  Level Boston Center
Fri 04:23:52 PM 42.3161 -74.8606 208° Southwest 382 440 26,000 -91 Level Boston Center
Fri 04:24:52 PM 42.2147 -74.9322 208° Southwest 382 440 25,800 -873 Descending Boston Center
Fri 04:26:30 PM 42.0711 -75.0483 211° Southwest 372 428 23,700 -1,849 Descending New York Center
Fri 04:27:31 PM 41.9917 -75.1156 212° Southwest 361 415 20,900 -2,390 Descending New York Center
Fri 04:28:28 PM 41.9017 -75.1878 211° Southwest 351 404 19,000 -966 Descending New York Center
Fri 04:29:29 PM 41.8200 -75.2547 211° Southwest 351 404 19,000 -446 Level New York Center
Fri 04:30:29 PM 41.7361 -75.3214 211° Southwest 351 404 18,100 -1,361 Descending New York Center
Fri 04:31:28 PM 41.6675 -75.3778 212° Southwest 351 404 16,300 -1,750 Descending New York Center
Fri 04:32:29 PM 41.5878 -75.4414 211° Southwest 346 398 14,600 -1,785 Descending New York Center
Fri 04:33:29 PM 41.5042 -75.5078 211° Southwest 346 398 12,700 -1,289 Descending New York Center
Fri 04:34:30 PM 41.4286 -75.5689 211° Southwest 328 377 12,000 -353 Descending New York Center
Fri 04:35:28 PM 41.3686 -75.6142 210° Southwest 320 368 12,000  Level New York Center
Fri 04:36:29 PM 41.2844 -75.6800 210° Southwest 320 368 12,000  Level New York Center
Fri 04:37:29 PM 41.1986 -75.6903 185° South 313 360 12,000  Level New York Center
Fri 04:38:30 PM 41.1031 -75.6889 179° South 318 366 12,000  Level New York Center
Fri 04:39:29 PM 41.0133 -75.6878 179° South 323 372 12,000 -454 Level New York Center
Fri 04:40:29 PM 40.9239 -75.6897 181° South 328 377 11,100 -850 Descending New York Center
Fri 04:41:29 PM 40.8383 -75.6889 180° South 328 377 10,300 -545 Descending New York Center
Fri 04:42:30 PM 40.7594 -75.6861 178° South 323 372 10,000 -149 Descending New York Center
Fri 04:43:30 PM 40.6800 -75.6886 181° South 303 349 10,000  Level New York Center
Fri 04:44:28 PM 40.5906 -75.6875 179° South 291 335 10,000  Level New York Center
Fri 04:45:30 PM 40.5072 -75.6844 178° South 291 335 10,000  Level New York Center
Fri 04:46:28 PM 40.4711 -75.6000 119° Southeast 244 281 10,000  Level New York Center
Fri 04:47:28 PM 40.4397 -75.5022 113° Southeast 262 302 10,000 -545 Level New York Center
Fri 04:48:29 PM 40.3608 -75.4397 149° Southeast 292 336 8,900 -1,091 Descending New York Center
Fri 04:49:29 PM 40.2942 -75.3833 147° Southeast 300 345 7,800 -1,100 Descending New York Center
Fri 04:50:29 PM 40.2253 -75.3353 152° Southeast 289 333 6,700 -893 Descending New York Center
Fri 04:51:30 PM 40.1667 -75.2908 150° Southeast 279 321 6,000 -397 Descending New York Center
Fri 04:52:30 PM 40.0997 -75.2403 150° Southeast 279 321 5,900 -286 Descending New York Center
Fri 04:52:54 PM 40.0667 -75.2167 151° Southeast 276 318 5,600 -1,143 Descending Philadelphia TRACON
Fri 04:53:54 PM 40.0000 -75.1833 159° South 255 293 4,300 -842 Descending Philadelphia TRACON
Fri 04:54:48 PM 39.9333 -75.1667 169° South 237 273 4,000 -143 Descending Philadelphia TRACON
Fri 04:56:00 PM 39.8667 -75.1333 159° South 204 235 4,000  Level Philadelphia TRACON

Login

Don't have an account? Register now (free) for customized features, flight alerts, and more!